Flight Track Log - Related Links

Times and Time Zones

All times are in EDT time to prevent confusion due to time zone crossing. See the LXJ529 flight status page for this flight to view local times or setup timezone preferences in your user account.

Time Position Orientation Groundspeed Altitude Reporting Facility
EDT Latitude Longitude Course Direction KTS MPH feet Rate Location/Type
Fri 05:46:47 PM 33.9331 -118.4406 261° West 189 217 1,700  Level Los Angeles Center
Fri 05:47:49 PM 33.9225 -118.5236 261° West 230 265 4,800 2,855 Climbing Los Angeles Center
Fri 05:48:51 PM 33.9131 -118.6089 262° West 254 292 7,600 2,855 Climbing Los Angeles Center
Fri 05:49:53 PM 33.9028 -118.7094 263° West 280 322 10,700 2,274 Climbing Los Angeles Center
Fri 05:50:55 PM 33.8897 -118.8106 261° West 315 362 12,300 1,632 Climbing Los Angeles Center
Fri 05:51:58 PM 33.8439 -118.9142 242° Southwest 352 405 14,100 1,728 Climbing Los Angeles Center
Fri 05:53:00 PM 33.7689 -118.9992 223° Southwest 374 430 15,900 1,694 Climbing Los Angeles Center
Fri 05:54:02 PM 33.6883 -119.0883 223° Southwest 392 451 17,600 1,839 Climbing Los Angeles Center
Fri 05:55:04 PM 33.5886 -119.1989 223° Southwest 409 471 19,700 1,839 Climbing Los Angeles Center
Fri 05:56:06 PM 33.5056 -119.2936 224° Southwest 411 473 21,400 1,456 Climbing Los Angeles Center
Fri 05:57:20 PM 33.4181 -119.3892 222° Southwest 423 487 23,000 1,500 Climbing Los Angeles Center
Fri 05:58:22 PM 33.3294 -119.4883 223° Southwest 433 498 24,800 1,824 Climbing Los Angeles Center
Fri 05:59:25 PM 33.2219 -119.6069 223° Southwest 438 504 26,800 1,728 Climbing Los Angeles Center
Fri 06:00:27 PM 33.1314 -119.7050 222° Southwest 440 506 28,400 1,645 Climbing Los Angeles Center
Fri 06:01:29 PM 33.0222 -119.8244 223° Southwest 444 511 30,200 1,597 Climbing Los Angeles Center
Fri 06:02:31 PM 32.9294 -119.9253 222° Southwest 449 517 31,700 1,306 Climbing Los Angeles Center
Fri 06:03:33 PM 32.8444 -120.0186 223° Southwest 453 521 32,900 1,161 Climbing Los Angeles Center
Fri 06:04:35 PM 32.7483 -120.1186 221° Southwest 457 526 34,100 1,016 Climbing Los Angeles Center
Fri 06:05:37 PM 32.6319 -120.2469 223° Southwest 470 541 35,000 774 Climbing Los Angeles Center
Fri 06:06:39 PM 32.5303 -120.3533 221° Southwest 482 555 35,700 706 Climbing Los Angeles Center
Fri 06:07:53 PM 32.4292 -120.4636 223° Southwest 490 564 36,600 920 Climbing Los Angeles Center
Fri 06:08:56 PM 32.3081 -120.5939 222° Southwest 490 564 37,800 960 Climbing Los Angeles Center
Fri 06:09:58 PM 32.2275 -120.6786 222° Southwest 488 562 38,600 971 Climbing Los Angeles Center
Fri 06:11:12 PM 32.0878 -120.8272 222° Southwest 483 556 40,000 613 Climbing Los Angeles Center
Fri 06:12:15 PM 31.9669 -120.9564 222° Southwest 487 560 40,000  Level Los Angeles Center
Fri 06:13:17 PM 31.8625 -121.0647 221° Southwest 496 571 40,000  Level Los Angeles Center
Fri 06:14:31 PM 31.7603 -121.1717 222° Southwest 493 567 40,000  Level Los Angeles Center
Fri 06:15:33 PM 31.6406 -121.3022 223° Southwest 490 564 40,000  Level Los Angeles Center
Fri 06:17:00 PM 31.5371 -121.4503 257° West  Level FlightAware Approximate
Fri 06:24:00 PM 31.3508 -122.3989 257° West  Level FlightAware Approximate
Fri 06:25:00 PM 31.3237 -122.5341 257° West  Level FlightAware Approximate
Fri 06:26:00 PM 31.2963 -122.6693 257° West  Level FlightAware Approximate
Fri 06:27:00 PM 31.2690 -122.8044 257° West  Level FlightAware Approximate
Fri 06:28:00 PM 31.2416 -122.9394 257° West  Level FlightAware Approximate
Fri 06:29:00 PM 31.2141 -123.0744 257° West  Level FlightAware Approximate
Fri 06:30:00 PM 31.1865 -123.2093 257° West  Level FlightAware Approximate
Fri 06:31:00 PM 31.1587 -123.3441 256° West  Level FlightAware Approximate
Fri 06:32:00 PM 31.1303 -123.4787 254° West  Level FlightAware Approximate
Fri 06:33:00 PM 31.1043 -123.6137 260° West  Level FlightAware Approximate
Fri 06:33:19 PM 31.1333 -123.5500 256° West 448 516 40,000  Level Oakland Oceanic (ODAPS)
Fri 06:34:00 PM 31.0833 -123.7501 254° West  Level FlightAware Approximate
Fri 06:35:00 PM 31.0515 -123.8835 254° West  Level FlightAware Approximate
Fri 06:36:00 PM 31.0197 -124.0160 254° West  Level FlightAware Approximate
Fri 06:37:00 PM 30.9877 -124.1484 254° West  Level FlightAware Approximate
Fri 06:38:00 PM 30.9582 -124.2815 256° West  Level FlightAware Approximate
Fri 06:39:00 PM 30.8520 -124.8139 255° West 448 516 40,000  Level FlightAware Transoceanic
Fri 06:40:00 PM 30.8200 -124.9538 255° West 448 516 40,000  Level FlightAware Transoceanic
Fri 06:41:00 PM 30.7878 -125.0937 255° West 448 516 40,000  Level FlightAware Transoceanic
Fri 06:42:00 PM 30.7555 -125.2335 255° West 448 516 40,000  Level FlightAware Transoceanic
Fri 06:43:00 PM 30.7230 -125.3732 255° West 448 516 40,000  Level FlightAware Transoceanic
Fri 06:44:00 PM 30.6904 -125.5128 255° West 448 516 40,000  Level FlightAware Transoceanic
Fri 06:45:00 PM 30.6576 -125.6523 255° West 448 516 40,000  Level FlightAware Transoceanic
Fri 06:46:00 PM 30.6247 -125.7917 255° West 448 516 40,000  Level FlightAware Transoceanic
Fri 06:47:00 PM 30.5917 -125.9310 255° West 448 516 40,000  Level FlightAware Transoceanic
Fri 06:48:00 PM 30.5585 -126.0702 254° West 448 516 40,000  Level FlightAware Transoceanic
Fri 06:49:00 PM 30.5251 -126.2093 254° West 448 516 40,000  Level FlightAware Transoceanic
Fri 06:50:00 PM 30.4916 -126.3483 254° West 448 516 40,000  Level FlightAware Transoceanic
Fri 06:51:00 PM 30.4579 -126.4873 254° West 448 516 40,000  Level FlightAware Transoceanic
Fri 06:52:00 PM 30.4241 -126.6261 254° West 448 516 40,000  Level FlightAware Transoceanic
Fri 06:53:00 PM 30.3902 -126.7648 254° West 448 516 40,000  Level FlightAware Transoceanic
Fri 06:54:00 PM 30.3561 -126.9035 254° West 448 516 40,000  Level FlightAware Transoceanic
Fri 06:55:00 PM 30.3219 -127.0420 254° West 448 516 40,000  Level FlightAware Transoceanic
Fri 06:56:00 PM 30.2875 -127.1804 254° West 448 516 40,000  Level FlightAware Transoceanic
Fri 06:57:00 PM 30.2529 -127.3188 254° West 448 516 40,000  Level FlightAware Transoceanic
Fri 06:58:00 PM 30.2183 -127.4570 254° West 448 516 40,000  Level FlightAware Transoceanic
Fri 06:59:00 PM 30.1834 -127.5952 254° West 448 516 40,000  Level FlightAware Transoceanic
Fri 07:00:00 PM 30.1485 -127.7332 254° West 448 516 40,000  Level FlightAware Transoceanic
Fri 07:01:00 PM 30.1134 -127.8712 254° West 448 516 40,000  Level FlightAware Transoceanic
Fri 07:02:00 PM 30.0781 -128.0090 253° West 448 516 40,000  Level FlightAware Transoceanic
Fri 07:03:00 PM 30.0427 -128.1468 253° West 448 516 40,000  Level FlightAware Transoceanic
Fri 07:04:00 PM 30.0072 -128.2845 253° West 448 516 40,000  Level FlightAware Transoceanic
Fri 07:05:00 PM 29.9715 -128.4220 253° West 448 516 40,000  Level FlightAware Transoceanic
Fri 07:06:00 PM 29.9356 -128.5595 253° West 448 516 40,000  Level FlightAware Transoceanic
Fri 07:07:00 PM 29.8997 -128.6968 253° West 448 516 40,000  Level FlightAware Transoceanic
Fri 07:08:00 PM 29.8636 -128.8341 253° West 448 516 40,000  Level FlightAware Transoceanic
Fri 07:09:00 PM 29.8273 -128.9713 253° West 448 516 40,000  Level FlightAware Transoceanic
Fri 07:10:00 PM 29.7909 -129.1083 253° West 448 516 40,000  Level FlightAware Transoceanic
Fri 07:11:00 PM 29.7544 -129.2453 253° West 448 516 40,000  Level FlightAware Transoceanic
Fri 07:12:00 PM 29.7177 -129.3822 253° West 448 516 40,000  Level FlightAware Transoceanic
Fri 07:13:00 PM 29.6809 -129.5189 253° West 448 516 40,000  Level FlightAware Transoceanic
Fri 07:14:00 PM 29.6439 -129.6556 253° West 448 516 40,000  Level FlightAware Transoceanic
Fri 07:15:00 PM 29.6068 -129.7921 253° West 448 516 40,000  Level FlightAware Transoceanic
Fri 07:16:00 PM 29.5696 -129.9286 253° West 448 516 40,000  Level FlightAware Transoceanic
Fri 07:17:00 PM 29.5322 -130.0650 252° West 448 516 40,000  Level FlightAware Transoceanic
Fri 07:18:00 PM 29.4947 -130.2012 252° West 448 516 40,000  Level FlightAware Transoceanic
Fri 07:19:00 PM 29.4570 -130.3374 252° West 448 516 40,000  Level FlightAware Transoceanic
Fri 07:20:00 PM 29.4192 -130.4734 252° West 448 516 40,000  Level FlightAware Transoceanic
Fri 07:21:00 PM 29.3813 -130.6094 252° West 448 516 40,000  Level FlightAware Transoceanic
Fri 07:22:00 PM 29.3432 -130.7453 252° West 448 516 40,000  Level FlightAware Transoceanic
Fri 07:23:00 PM 29.3050 -130.8810 252° West 448 516 40,000  Level FlightAware Transoceanic
Fri 07:24:00 PM 29.2667 -131.0167 252° West 448 516 40,000  Level FlightAware Transoceanic
Fri 07:25:00 PM 29.2282 -131.1524 252° West 448 516 40,000  Level FlightAware Transoceanic
Fri 07:26:00 PM 29.1895 -131.2881 252° West 448 516 40,000  Level FlightAware Transoceanic
Fri 07:27:00 PM 29.1508 -131.4237 252° West 448 516 40,000  Level FlightAware Transoceanic
Fri 07:28:00 PM 29.1119 -131.5591 252° West 448 516 40,000  Level FlightAware Transoceanic
Fri 07:29:00 PM 29.0728 -131.6945 252° West 448 516 40,000 2,727 Level FlightAware Transoceanic
Fri 07:29:06 PM 29.2667 -131.0167 252° West 433 498 43,000  Climbing Oakland Oceanic (ODAPS)
Fri 07:30:00 PM 29.0337 -131.8298 252° West 448 516 40,000 -1,579 Descending FlightAware Transoceanic
Fri 07:31:00 PM 28.9944 -131.9649 252° West 448 516 40,000  Level FlightAware Transoceanic
Fri 07:32:00 PM 28.9549 -132.1000 252° West 448 516 40,000  Level FlightAware Transoceanic
Fri 07:33:00 PM 28.9153 -132.2349 251° West 448 516 40,000  Level FlightAware Transoceanic
Fri 07:34:00 PM 28.8756 -132.3698 251° West 448 516 40,000 1,500 Level FlightAware Transoceanic
Fri 07:35:00 PM 28.8898 -132.3216 251° West 433 498 43,000 1,500 Climbing FlightAware Transoceanic
Fri 07:36:00 PM 28.8514 -132.4516 251° West 433 498 43,000  Level FlightAware Transoceanic
Fri 07:37:00 PM 28.8129 -132.5815 251° West 433 498 43,000  Level FlightAware Transoceanic
Fri 07:38:00 PM 28.7743 -132.7113 251° West 433 498 43,000  Level FlightAware Transoceanic
Fri 07:39:00 PM 28.7355 -132.8409 251° West 433 498 43,000  Level FlightAware Transoceanic
Fri 07:40:00 PM 28.6967 -132.9705 251° West 433 498 43,000  Level FlightAware Transoceanic
Fri 07:41:00 PM 28.6577 -133.1000 251° West 433 498 43,000  Level FlightAware Transoceanic
Fri 07:42:00 PM 28.6186 -133.2294 251° West 433 498 43,000  Level FlightAware Transoceanic
Fri 07:43:00 PM 28.5793 -133.3587 251° West 433 498 43,000  Level FlightAware Transoceanic
Fri 07:44:00 PM 28.5399 -133.4879 251° West 433 498 43,000  Level FlightAware Transoceanic
Fri 07:45:00 PM 28.5005 -133.6170 251° West 433 498 43,000  Level FlightAware Transoceanic
Fri 07:46:00 PM 28.4608 -133.7460 251° West 433 498 43,000  Level FlightAware Transoceanic
Fri 07:47:00 PM 28.4211 -133.8750 251° West 433 498 43,000  Level FlightAware Transoceanic
Fri 07:48:00 PM 28.3813 -134.0038 251° West 433 498 43,000  Level FlightAware Transoceanic
Fri 07:49:00 PM 28.3413 -134.1325 251° West 433 498 43,000  Level FlightAware Transoceanic
Fri 07:50:00 PM 28.3012 -134.2611 250° West 433 498 43,000  Level FlightAware Transoceanic
Fri 07:51:00 PM 28.2610 -134.3896 250° West 433 498 43,000  Level FlightAware Transoceanic
Fri 07:52:00 PM 28.2206 -134.5181 250° West 433 498 43,000  Level FlightAware Transoceanic
Fri 07:53:00 PM 28.1802 -134.6464 250° West 433 498 43,000  Level FlightAware Transoceanic
Fri 07:54:00 PM 28.1396 -134.7746 250° West 433 498 43,000  Level FlightAware Transoceanic
Fri 07:55:00 PM 28.0989 -134.9027 250° West 433 498 43,000  Level FlightAware Transoceanic
Fri 07:56:00 PM 28.0581 -135.0308 250° West 433 498 43,000  Level FlightAware Transoceanic
Fri 07:57:00 PM 28.0172 -135.1587 250° West 433 498 43,000  Level FlightAware Transoceanic
Fri 07:58:00 PM 27.9761 -135.2866 250° West 433 498 43,000  Level FlightAware Transoceanic
Fri 07:59:00 PM 27.9350 -135.4143 250° West 433 498 43,000  Level FlightAware Transoceanic
Fri 08:00:00 PM 27.8937 -135.5419 250° West 433 498 43,000  Level FlightAware Transoceanic
Fri 08:01:00 PM 27.8523 -135.6695 250° West 433 498 43,000  Level FlightAware Transoceanic
Fri 08:02:00 PM 27.8108 -135.7970 250° West 433 498 43,000  Level FlightAware Transoceanic
Fri 08:03:00 PM 27.7691 -135.9243 250° West 433 498 43,000  Level FlightAware Transoceanic
Fri 08:04:00 PM 27.7274 -136.0516 250° West 433 498 43,000  Level FlightAware Transoceanic
Fri 08:05:00 PM 27.6855 -136.1787 250° West 433 498 43,000  Level FlightAware Transoceanic
Fri 08:06:00 PM 27.6435 -136.3058 250° West 433 498 43,000  Level FlightAware Transoceanic
Fri 08:07:00 PM 27.6014 -136.4328 249° West 433 498 43,000  Level FlightAware Transoceanic
Fri 08:08:00 PM 27.5592 -136.5596 249° West 433 498 43,000  Level FlightAware Transoceanic
Fri 08:09:00 PM 27.5169 -136.6864 249° West 433 498 43,000  Level FlightAware Transoceanic
Fri 08:10:00 PM 27.4744 -136.8131 249° West 433 498 43,000  Level FlightAware Transoceanic
Fri 08:11:00 PM 27.4319 -136.9396 249° West 433 498 43,000  Level FlightAware Transoceanic
Fri 08:12:00 PM 27.3892 -137.0661 249° West 433 498 43,000  Level FlightAware Transoceanic
Fri 08:13:00 PM 27.3464 -137.1925 249° West 433 498 43,000  Level FlightAware Transoceanic
Fri 08:14:00 PM 27.3035 -137.3188 249° West 433 498 43,000  Level FlightAware Transoceanic
Fri 08:15:00 PM 27.2605 -137.4449 249° West 433 498 43,000  Level FlightAware Transoceanic
Fri 08:16:00 PM 27.2173 -137.5710 249° West 433 498 43,000  Level FlightAware Transoceanic
Fri 08:17:00 PM 27.1741 -137.6970 249° West 433 498 43,000  Level FlightAware Transoceanic
Fri 08:18:00 PM 27.1307 -137.8229 249° West 433 498 43,000  Level FlightAware Transoceanic
Fri 08:19:00 PM 27.0873 -137.9487 249° West 433 498 43,000  Level FlightAware Transoceanic
Fri 08:20:00 PM 27.0437 -138.0744 249° West 433 498 43,000  Level FlightAware Transoceanic
Fri 08:21:00 PM 27.0000 -138.2000 249° West 433 498 43,000  Level FlightAware Transoceanic
Fri 08:22:00 PM 26.9551 -138.3283 249° West 433 498 43,000  Level FlightAware Transoceanic
Fri 08:22:52 PM 27.0000 -138.2000 249° West 434 499 43,000  Level Oakland Oceanic (ODAPS)
Fri 08:23:00 PM 26.9101 -138.4565 248° West 433 498 43,000  Level FlightAware Transoceanic
Fri 08:24:00 PM 26.8649 -138.5846 248° West 433 498 43,000  Level FlightAware Transoceanic
Fri 08:25:00 PM 26.8197 -138.7126 248° West 433 498 43,000  Level FlightAware Transoceanic
Fri 08:26:00 PM 26.7743 -138.8405 248° West 433 498 43,000  Level FlightAware Transoceanic
Fri 08:27:00 PM 26.7288 -138.9683 248° West 433 498 43,000  Level FlightAware Transoceanic
Fri 08:28:00 PM 26.6832 -139.0960 248° West 433 498 43,000  Level FlightAware Transoceanic
Fri 08:29:00 PM 26.5992 -139.3302 248° West 434 499 43,000  Level FlightAware Transoceanic
Fri 08:30:00 PM 26.5541 -139.4553 248° West 434 499 43,000  Level FlightAware Transoceanic
Fri 08:31:00 PM 26.5089 -139.5803 248° West 434 499 43,000  Level FlightAware Transoceanic
Fri 08:32:00 PM 26.4636 -139.7052 248° West 434 499 43,000  Level FlightAware Transoceanic
Fri 08:33:00 PM 26.4181 -139.8300 248° West 434 499 43,000  Level FlightAware Transoceanic
Fri 08:34:00 PM 26.3726 -139.9547 248° West 434 499 43,000  Level FlightAware Transoceanic
Fri 08:35:00 PM 26.3270 -140.0793 248° West 434 499 43,000  Level FlightAware Transoceanic
Fri 08:36:00 PM 26.2812 -140.2038 248° West 434 499 43,000  Level FlightAware Transoceanic
Fri 08:37:00 PM 26.2354 -140.3282 248° West 434 499 43,000  Level FlightAware Transoceanic
Fri 08:38:00 PM 26.1894 -140.4525 248° West 434 499 43,000  Level FlightAware Transoceanic
Fri 08:39:00 PM 26.1434 -140.5767 248° West 434 499 43,000  Level FlightAware Transoceanic
Fri 08:40:00 PM 26.0972 -140.7008 247° West 434 499 43,000  Level FlightAware Transoceanic
Fri 08:41:00 PM 26.0509 -140.8248 247° West 434 499 43,000  Level FlightAware Transoceanic
Fri 08:42:00 PM 26.0046 -140.9488 247° West 434 499 43,000  Level FlightAware Transoceanic
Fri 08:43:00 PM 25.9581 -141.0726 247° West 434 499 43,000  Level FlightAware Transoceanic
Fri 08:44:00 PM 25.9115 -141.1963 247° West 434 499 43,000  Level FlightAware Transoceanic
Fri 08:45:00 PM 25.8648 -141.3199 247° West 434 499 43,000  Level FlightAware Transoceanic
Fri 08:46:00 PM 25.8180 -141.4434 247° West 434 499 43,000  Level FlightAware Transoceanic
Fri 08:47:00 PM 25.7711 -141.5668 247° West 434 499 43,000  Level FlightAware Transoceanic
Fri 08:48:00 PM 25.7241 -141.6902 247° West 434 499 43,000  Level FlightAware Transoceanic
Fri 08:49:00 PM 25.6770 -141.8134 247° West 434 499 43,000  Level FlightAware Transoceanic
Fri 08:50:00 PM 25.6298 -141.9365 247° West 434 499 43,000  Level FlightAware Transoceanic
Fri 08:51:00 PM 25.5825 -142.0596 247° West 434 499 43,000  Level FlightAware Transoceanic
Fri 08:52:00 PM 25.5350 -142.1825 247° West 434 499 43,000  Level FlightAware Transoceanic
Fri 08:53:00 PM 25.4875 -142.3053 247° West 434 499 43,000  Level FlightAware Transoceanic
Fri 08:54:00 PM 25.4399 -142.4281 247° West 434 499 43,000  Level FlightAware Transoceanic
Fri 08:55:00 PM 25.3922 -142.5507 247° West 434 499 43,000  Level FlightAware Transoceanic
Fri 08:56:00 PM 25.3443 -142.6733 247° West 434 499 43,000  Level FlightAware Transoceanic
Fri 08:57:00 PM 25.2964 -142.7957 247° West 434 499 43,000  Level FlightAware Transoceanic
Fri 08:58:00 PM 25.2484 -142.9181 247° West 434 499 43,000  Level FlightAware Transoceanic
Fri 08:59:00 PM 25.2002 -143.0403 246° West 434 499 43,000  Level FlightAware Transoceanic
Fri 09:00:00 PM 25.1520 -143.1625 246° West 434 499 43,000  Level FlightAware Transoceanic
Fri 09:01:00 PM 25.1037 -143.2845 246° West 434 499 43,000  Level FlightAware Transoceanic
Fri 09:02:00 PM 25.0552 -143.4065 246° West 434 499 43,000  Level FlightAware Transoceanic
Fri 09:03:00 PM 25.0067 -143.5284 246° West 434 499 43,000  Level FlightAware Transoceanic
Fri 09:04:00 PM 24.9581 -143.6502 246° West 434 499 43,000  Level FlightAware Transoceanic
Fri 09:05:00 PM 24.9093 -143.7718 246° West 434 499 43,000  Level FlightAware Transoceanic
Fri 09:06:00 PM 24.8605 -143.8934 246° West 434 499 43,000  Level FlightAware Transoceanic
Fri 09:07:00 PM 24.8116 -144.0149 246° West 434 499 43,000  Level FlightAware Transoceanic
Fri 09:08:00 PM 24.7626 -144.1363 246° West 434 499 43,000  Level FlightAware Transoceanic
Fri 09:09:00 PM 24.7134 -144.2576 246° West 434 499 43,000  Level FlightAware Transoceanic
Fri 09:10:00 PM 24.6642 -144.3788 246° West 434 499 43,000  Level FlightAware Transoceanic
Fri 09:11:00 PM 24.6149 -144.4999 246° West 434 499 43,000  Level FlightAware Transoceanic
Fri 09:12:00 PM 24.5655 -144.6209 246° West 434 499 43,000  Level FlightAware Transoceanic
Fri 09:13:00 PM 24.5160 -144.7418 246° West 434 499 43,000  Level FlightAware Transoceanic
Fri 09:14:00 PM 24.4664 -144.8626 246° West 434 499 43,000  Level FlightAware Transoceanic
Fri 09:15:00 PM 24.4167 -144.9833 246° West 434 499 43,000  Level FlightAware Transoceanic
Fri 09:16:00 PM 24.3679 -145.1016 246° West 434 499 43,000  Level FlightAware Transoceanic
Fri 09:17:00 PM 24.3190 -145.2197 246° West 434 499 43,000  Level FlightAware Transoceanic
Fri 09:18:00 PM 24.2700 -145.3377 245° Southwest 434 499 43,000  Level FlightAware Transoceanic
Fri 09:18:48 PM 24.4167 -144.9833 246° West 433 498 43,000  Level Oakland Oceanic (ODAPS)
Fri 09:19:00 PM 24.2209 -145.4557 245° Southwest 434 499 43,000  Level FlightAware Transoceanic
Fri 09:20:00 PM 24.1717 -145.5735 245° Southwest 434 499 43,000  Level FlightAware Transoceanic
Fri 09:21:00 PM 24.1224 -145.6913 245° Southwest 434 499 43,000  Level FlightAware Transoceanic
Fri 09:22:00 PM 24.0731 -145.8090 245° Southwest 434 499 43,000  Level FlightAware Transoceanic
Fri 09:23:00 PM 24.0237 -145.9266 245° Southwest 434 499 43,000  Level FlightAware Transoceanic
Fri 09:24:00 PM 23.9741 -146.0441 245° Southwest 434 499 43,000  Level FlightAware Transoceanic
Fri 09:25:00 PM 23.8648 -146.3022 245° Southwest 433 498 43,000  Level FlightAware Transoceanic
Fri 09:26:00 PM 23.8141 -146.4216 245° Southwest 433 498 43,000  Level FlightAware Transoceanic
Fri 09:27:00 PM 23.7633 -146.5408 245° Southwest 433 498 43,000  Level FlightAware Transoceanic
Fri 09:28:00 PM 23.7124 -146.6600 245° Southwest 433 498 43,000  Level FlightAware Transoceanic
Fri 09:29:00 PM 23.6614 -146.7790 245° Southwest 433 498 43,000  Level FlightAware Transoceanic
Fri 09:30:00 PM 23.6103 -146.8980 245° Southwest 433 498 43,000  Level FlightAware Transoceanic
Fri 09:31:00 PM 23.5591 -147.0168 245° Southwest 433 498 43,000  Level FlightAware Transoceanic
Fri 09:32:00 PM 23.5079 -147.1356 245° Southwest 433 498 43,000  Level FlightAware Transoceanic
Fri 09:33:00 PM 23.4565 -147.2543 245° Southwest 433 498 43,000  Level FlightAware Transoceanic
Fri 09:34:00 PM 23.4050 -147.3729 245° Southwest 433 498 43,000  Level FlightAware Transoceanic
Fri 09:35:00 PM 23.3535 -147.4914 245° Southwest 433 498 43,000  Level FlightAware Transoceanic
Fri 09:36:00 PM 23.3019 -147.6098 245° Southwest 433 498 43,000  Level FlightAware Transoceanic
Fri 09:37:00 PM 23.2502 -147.7281 245° Southwest 433 498 43,000  Level FlightAware Transoceanic
Fri 09:38:00 PM 23.1983 -147.8464 244° Southwest 433 498 43,000  Level FlightAware Transoceanic
Fri 09:39:00 PM 23.1465 -147.9645 244° Southwest 433 498 43,000  Level FlightAware Transoceanic
Fri 09:40:00 PM 23.0945 -148.0826 244° Southwest 433 498 43,000  Level FlightAware Transoceanic
Fri 09:41:00 PM 23.0424 -148.2005 244° Southwest 433 498 43,000  Level FlightAware Transoceanic
Fri 09:42:00 PM 22.9902 -148.3184 244° Southwest 433 498 43,000  Level FlightAware Transoceanic
Fri 09:43:00 PM 22.9380 -148.4361 244° Southwest 433 498 43,000  Level FlightAware Transoceanic
Fri 09:44:00 PM 22.8857 -148.5538 244° Southwest 433 498 43,000  Level FlightAware Transoceanic
Fri 09:45:00 PM 22.8333 -148.6714 244° Southwest 433 498 43,000  Level FlightAware Transoceanic
Fri 09:46:00 PM 22.7807 -148.7889 244° Southwest 433 498 43,000  Level FlightAware Transoceanic
Fri 09:47:00 PM 22.7281 -148.9063 244° Southwest 433 498 43,000  Level FlightAware Transoceanic
Fri 09:48:00 PM 22.6755 -149.0236 244° Southwest 433 498 43,000  Level FlightAware Transoceanic
Fri 09:49:00 PM 22.6227 -149.1408 244° Southwest 433 498 43,000  Level FlightAware Transoceanic
Fri 09:50:00 PM 22.5699 -149.2580 244° Southwest 433 498 43,000  Level FlightAware Transoceanic
Fri 09:51:00 PM 22.5169 -149.3750 244° Southwest 433 498 43,000  Level FlightAware Transoceanic
Fri 09:52:00 PM 22.4639 -149.4920 244° Southwest 433 498 43,000  Level FlightAware Transoceanic
Fri 09:53:00 PM 22.4108 -149.6088 244° Southwest 433 498 43,000  Level FlightAware Transoceanic
Fri 09:54:00 PM 22.3576 -149.7256 244° Southwest 433 498 43,000  Level FlightAware Transoceanic
Fri 09:55:00 PM 22.3044 -149.8423 244° Southwest 433 498 43,000  Level FlightAware Transoceanic
Fri 09:56:00 PM 22.2510 -149.9589 244° Southwest 433 498 43,000  Level FlightAware Transoceanic
Fri 09:57:00 PM 22.1976 -150.0754 244° Southwest 433 498 43,000  Level FlightAware Transoceanic
Fri 09:58:00 PM 22.1441 -150.1918 244° Southwest 433 498 43,000  Level FlightAware Transoceanic
Fri 09:59:00 PM 22.0905 -150.3082 244° Southwest 433 498 43,000  Level FlightAware Transoceanic
Fri 10:00:00 PM 22.0368 -150.4244 243° Southwest 433 498 43,000  Level FlightAware Transoceanic
Fri 10:01:00 PM 21.9830 -150.5406 243° Southwest 433 498 43,000  Level FlightAware Transoceanic
Fri 10:02:00 PM 21.9292 -150.6566 243° Southwest 433 498 43,000  Level FlightAware Transoceanic
Fri 10:03:00 PM 21.8752 -150.7726 243° Southwest 433 498 43,000  Level FlightAware Transoceanic
Fri 10:04:00 PM 21.8213 -150.8885 243° Southwest 433 498 43,000  Level FlightAware Transoceanic
Fri 10:05:00 PM 21.7672 -151.0043 243° Southwest 433 498 43,000  Level FlightAware Transoceanic
Fri 10:06:00 PM 21.7130 -151.1200 243° Southwest 433 498 43,000  Level FlightAware Transoceanic
Fri 10:07:00 PM 21.6587 -151.2357 243° Southwest 433 498 43,000  Level FlightAware Transoceanic
Fri 10:08:00 PM 21.6044 -151.3512 243° Southwest 433 498 43,000  Level FlightAware Transoceanic
Fri 10:09:00 PM 21.5500 -151.4667 243° Southwest 433 498 43,000  Level FlightAware Transoceanic
Fri 10:09:22 PM 21.5667 -151.4000 242° Southwest 430 495 43,000  Level Honolulu Center
Fri 10:10:00 PM 21.4969 -151.5767 243° Southwest 433 498 43,000  Level FlightAware Transoceanic
Fri 10:10:23 PM 21.5167 -151.5167 245° Southwest 420 483 43,000  Level Honolulu Center
Fri 10:11:00 PM 21.4437 -151.6867 243° Southwest 433 498 43,000  Level FlightAware Transoceanic
Fri 10:11:23 PM 21.4667 -151.6333 245° Southwest 420 483 43,000  Level Honolulu Center
Fri 10:12:00 PM 21.3904 -151.7966 242° Southwest 433 498 43,000  Level FlightAware Transoceanic
Fri 10:12:23 PM 21.4333 -151.7500 253° West 420 483 43,000  Level Honolulu Center
Fri 10:13:00 PM 21.3371 -151.9064 242° Southwest 433 498 43,000  Level FlightAware Transoceanic
Fri 10:13:24 PM 21.3833 -151.8833 248° West 430 495 43,000  Level Honolulu Center
Fri 10:14:00 PM 21.2837 -152.0161 242° Southwest 433 498 43,000  Level FlightAware Transoceanic
Fri 10:14:24 PM 21.3500 -152.0000 253° West 430 495 43,000  Level Honolulu Center
Fri 10:15:24 PM 21.3167 -152.1167 253° West 440 506 43,000  Level Honolulu Center
Fri 10:16:24 PM 21.2833 -152.2500 255° West 430 495 43,000  Level Honolulu Center
Fri 10:17:25 PM 21.2500 -152.3667 253° West 430 495 43,000  Level Honolulu Center
Fri 10:18:25 PM 21.2167 -152.4833 253° West 430 495 43,000  Level Honolulu Center
Fri 10:19:26 PM 21.1833 -152.6167 255° West 430 495 43,000  Level Honolulu Center
Fri 10:20:26 PM 21.1333 -152.7333 245° Southwest 440 506 43,000  Level Honolulu Center
Fri 10:21:26 PM 21.1000 -152.8667 255° West 430 495 43,000  Level Honolulu Center
Fri 10:22:27 PM 21.0667 -152.9833 253° West 440 506 43,000  Level Honolulu Center
Fri 10:23:27 PM 21.0333 -153.1167 255° West 440 506 43,000  Level Honolulu Center
Fri 10:24:27 PM 21.0000 -153.2333 253° West 440 506 43,000  Level Honolulu Center
Fri 10:25:28 PM 20.9500 -153.3667 248° West 440 506 43,000  Level Honolulu Center
Fri 10:26:28 PM 20.9167 -153.4833 253° West 440 506 43,000  Level Honolulu Center
Fri 10:27:28 PM 20.8833 -153.6167 255° West 440 506 43,000 -149 Level Honolulu Center
Fri 10:28:29 PM 20.8500 -153.7333 253° West 440 506 42,700 -843 Descending Honolulu Center
Fri 10:29:29 PM 20.8167 -153.8500 253° West 420 483 41,300 -1,488 Descending Honolulu Center
Fri 10:30:30 PM 20.7667 -153.9667 245° Southwest 420 483 39,700 -1,983 Descending Honolulu Center
Fri 10:31:30 PM 20.7333 -154.1000 255° West 430 495 37,300 -2,200 Descending Honolulu Center
Fri 10:32:30 PM 20.7000 -154.2167 253° West 440 506 35,300 -1,983 Descending Honolulu Center
Fri 10:33:31 PM 20.6667 -154.3500 255° West 440 506 33,300 -1,983 Descending Honolulu Center
Fri 10:34:31 PM 20.6167 -154.4833 248° West 440 506 31,300 -1,850 Descending Honolulu Center
Fri 10:35:31 PM 20.5833 -154.6167 255° West 440 506 29,600 -1,686 Descending Honolulu Center
Fri 10:36:32 PM 20.5333 -154.7500 248° West 470 541 27,900 -1,736 Descending Honolulu Center
Fri 10:37:32 PM 20.5000 -154.8833 255° West 460 529 26,100 -1,950 Descending Honolulu Center
Fri 10:38:32 PM 20.4500 -155.0000 245° Southwest 440 506 24,000 -2,033 Descending Honolulu Center
Fri 10:39:33 PM 20.4167 -155.1167 253° West 430 495 22,000 -1,983 Descending Honolulu Center
Fri 10:40:33 PM 20.3833 -155.2333 253° West 430 495 20,000 -1,950 Descending Honolulu Center
Fri 10:41:33 PM 20.3500 -155.3667 255° West 420 483 18,100 -1,983 Descending Honolulu Center
Fri 10:42:34 PM 20.3000 -155.4833 245° Southwest 410 472 16,000 -1,785 Descending Honolulu Center
Fri 10:43:34 PM 20.2667 -155.5833 250° West 350 403 14,500 -1,587 Descending Honolulu Center
Fri 10:44:35 PM 20.2500 -155.6667 258° West 320 368 12,800 -1,785 Descending Honolulu Center
Fri 10:45:35 PM 20.2167 -155.7500 247° West 300 345 10,900 -1,800 Descending Honolulu Center
Fri 10:46:35 PM 20.1833 -155.8333 247° West 300 345 9,200 -1,934 Descending Honolulu Center
Fri 10:47:36 PM 20.1333 -155.9000 231° Southwest 300 345 7,000 -2,182 Descending Honolulu Center
Fri 10:48:36 PM 20.0667 -155.9500 215° Southwest 290 334 4,800 -2,000 Descending Honolulu Center
Fri 10:49:36 PM 20.0000 -156.0000 215° Southwest 270 311 3,000 -893 Descending Honolulu Center
Fri 10:50:37 PM 19.9333 -156.0167 193° South 240 276 3,000 -198 Level Honolulu Center
Fri 10:51:37 PM 19.8833 -156.0167 180° South 210 242 2,600 -700 Descending Honolulu Center
Fri 10:52:37 PM 19.8333 -156.0333 197° South 160 184 1,600 -850 Descending Honolulu Center
Fri 10:53:37 PM 19.8000 -156.0333 180° South 110 127 900 -645 Descending Honolulu Center
Fri 10:54:38 PM 19.7500 -156.0333 180° South 130 150 300 -590 Descending Honolulu Center

Login

Don't have an account? Register now (free) for customized features, flight alerts, and more!